createdAt,value
2018-04-27T01:39:21.728Z,13.60
2018-04-27T01:41:52.326Z,8.40
2018-04-27T01:44:23.097Z,8.40
2018-04-27T01:46:53.812Z,8.40
2018-04-27T01:49:24.480Z,8.40
2018-04-27T01:51:55.969Z,8.30
2018-04-27T01:54:25.855Z,8.30
2018-04-27T01:56:55.672Z,8.10
2018-04-27T01:59:25.517Z,8.10
2018-04-27T02:01:56.135Z,8.10
2018-04-27T02:04:25.934Z,8.10
2018-04-27T02:06:56.570Z,8.20
2018-04-27T02:09:26.388Z,8.20
2018-04-27T02:11:56.241Z,8.30
2018-04-27T02:14:26.862Z,8.70
2018-04-27T02:16:56.682Z,8.60
2018-04-27T02:19:27.298Z,8.60
2018-04-27T02:21:57.917Z,8.50
2018-04-27T02:24:27.726Z,8.50
2018-04-27T02:26:57.551Z,8.30
2018-04-27T02:29:27.369Z,8.40
2018-04-27T02:31:57.960Z,8.30
2018-04-27T02:34:27.769Z,8.30
2018-04-27T02:36:57.579Z,8.30
2018-04-27T02:39:27.395Z,8.20
2018-04-27T02:41:57.219Z,8.20
2018-04-27T02:44:27.047Z,8.10
2018-04-27T02:46:57.663Z,8.20
2018-04-27T02:49:27.484Z,8.20
2018-04-27T02:51:58.101Z,8.20
2018-04-27T02:54:27.920Z,8.30
2018-04-27T02:56:57.711Z,8.10
2018-04-27T02:59:27.526Z,8.00
2018-04-27T03:01:57.359Z,8.00
2018-04-27T03:04:27.204Z,8.10
2018-04-27T03:06:57.787Z,8.00
2018-04-27T03:09:27.582Z,8.00
2018-04-27T03:11:57.407Z,8.10
2018-04-27T03:14:28.056Z,7.90
2018-04-27T03:16:58.671Z,7.80
2018-04-27T03:19:28.484Z,7.80
2018-04-27T03:21:58.303Z,7.90
2018-04-27T03:24:28.162Z,7.90
2018-04-27T03:26:58.753Z,7.70
2018-04-27T03:29:28.582Z,7.70
2018-04-27T03:31:59.284Z,7.60
2018-04-27T03:34:29.091Z,7.50
2018-04-27T03:36:59.738Z,7.50
2018-04-27T03:39:29.551Z,7.40
2018-04-27T03:42:00.188Z,7.50
2018-04-27T03:44:30.822Z,7.40
2018-04-27T03:47:00.646Z,7.40
2018-04-27T03:49:31.254Z,7.40
2018-04-27T03:52:01.065Z,7.30
2018-04-27T03:54:30.892Z,7.30
2018-04-27T03:57:01.585Z,7.60
2018-04-27T03:59:49.058Z,7.60
2018-04-27T04:02:37.671Z,7.60
2018-04-27T04:05:33.955Z,7.40
2018-04-27T04:08:04.566Z,7.50
2018-04-27T04:10:35.194Z,7.40
2018-04-27T04:13:05.834Z,7.50
2018-04-27T04:15:36.485Z,7.40
2018-04-27T04:18:07.053Z,7.50
2018-04-27T04:20:36.872Z,7.50
2018-04-27T04:23:07.538Z,7.50
2018-04-27T04:25:38.122Z,7.80
2018-04-27T04:28:07.942Z,7.80
2018-04-27T04:30:37.775Z,7.90
2018-04-27T04:33:07.583Z,7.70
2018-04-27T04:35:37.429Z,7.60
2018-04-27T04:38:08.100Z,7.50
2018-04-27T04:40:37.969Z,7.50
2018-04-27T04:43:08.591Z,7.50
2018-04-27T04:45:39.374Z,7.50
2018-04-27T04:48:09.238Z,7.50
2018-04-27T04:50:39.098Z,7.50
2018-04-27T04:53:08.999Z,7.30
2018-04-27T04:55:38.881Z,7.10
2018-04-27T04:58:08.827Z,6.90
2018-04-27T05:00:39.588Z,7.10
2018-04-27T05:03:10.305Z,7.10
2018-04-27T05:05:40.238Z,7.10
2018-04-27T05:08:10.103Z,6.90
2018-04-27T05:10:40.913Z,7.10
2018-04-27T05:13:10.790Z,7.10
2018-04-27T05:15:41.478Z,7.20
2018-04-27T05:18:22.835Z,7.20
2018-04-27T05:20:53.518Z,7.30
2018-04-27T05:23:24.168Z,7.40
2018-04-27T05:25:54.900Z,7.30
2018-04-27T05:28:25.633Z,7.20
2018-04-27T05:30:55.620Z,7.20
2018-04-27T05:33:25.624Z,7.30
2018-04-27T05:35:55.519Z,7.50
2018-04-27T05:38:26.199Z,7.10
2018-04-27T05:40:56.850Z,7.00
2018-04-27T05:43:26.724Z,7.00
2018-04-27T05:45:57.433Z,7.80
2018-04-27T05:48:28.119Z,8.00
2018-04-27T05:50:58.019Z,8.00
2018-04-27T05:53:27.913Z,7.90
2018-04-27T05:55:59.622Z,7.80
2018-04-27T05:58:29.541Z,7.70
2018-04-27T06:01:00.295Z,8.00
2018-04-27T06:03:48.640Z,8.10
2018-04-27T06:06:18.744Z,8.10
2018-04-27T06:08:48.575Z,8.20
2018-04-27T06:11:18.435Z,8.10
2018-04-27T06:13:49.178Z,8.20
2018-04-27T06:16:19.089Z,8.20
2018-04-27T06:18:48.966Z,8.30
2018-04-27T06:21:18.813Z,8.50
2018-04-27T06:23:48.637Z,8.40
2018-04-27T06:26:19.363Z,8.40
2018-04-27T06:28:49.381Z,8.40
2018-04-27T06:31:20.135Z,8.20
2018-04-27T06:33:50.817Z,8.30
2018-04-27T06:36:21.502Z,8.20
2018-04-27T06:38:52.219Z,7.80
2018-04-27T06:41:22.958Z,7.90
2018-04-27T06:43:52.893Z,7.90
2018-04-27T06:46:23.666Z,8.00
2018-04-27T06:48:54.476Z,8.30
2018-04-27T06:51:25.245Z,8.40
2018-04-27T06:53:55.169Z,8.40
2018-04-27T06:56:25.938Z,8.50
2018-04-27T06:58:56.723Z,8.50
2018-04-27T07:01:27.242Z,8.50
2018-04-27T07:03:58.019Z,8.50
2018-04-27T07:06:28.751Z,8.40
2018-04-27T07:08:58.726Z,8.30
2018-04-27T07:11:28.741Z,8.50
2018-04-27T07:13:58.719Z,8.50
2018-04-27T07:16:29.387Z,8.60
2018-04-27T07:18:59.280Z,8.60
2018-04-27T07:21:29.922Z,8.40
2018-04-27T07:23:59.859Z,8.40
2018-04-27T07:26:30.480Z,8.60
2018-04-27T07:29:00.427Z,8.60
2018-04-27T07:31:30.326Z,8.60
2018-04-27T07:34:01.001Z,8.90
2018-04-27T07:36:30.919Z,8.90
2018-04-27T07:39:01.630Z,9.20
2018-04-27T07:41:31.559Z,9.20
2018-04-27T07:44:02.461Z,9.30
2018-04-27T07:46:32.464Z,9.50
2018-04-27T07:49:03.119Z,9.70
2018-04-27T07:51:32.998Z,9.60
2018-04-27T07:54:02.952Z,9.90
2018-04-27T07:56:33.666Z,9.60
2018-04-27T07:59:04.322Z,9.70
2018-04-27T08:01:34.247Z,9.60
2018-04-27T08:04:04.110Z,10.00
2018-04-27T08:06:33.998Z,10.20
2018-04-27T08:09:03.967Z,10.10
2018-04-27T08:11:34.706Z,10.50
2018-04-27T08:14:04.658Z,10.60
2018-04-27T08:16:35.451Z,10.70
2018-04-27T08:19:05.392Z,10.70
2018-04-27T08:21:36.098Z,11.10
2018-04-27T08:24:06.058Z,11.00
2018-04-27T08:26:36.783Z,11.00
2018-04-27T08:29:06.758Z,11.00
2018-04-27T08:31:36.652Z,11.00
2018-04-27T08:34:06.627Z,11.10
2018-04-27T08:36:37.352Z,11.80
2018-04-27T08:39:07.219Z,11.70
2018-04-27T08:41:37.349Z,11.90
2018-04-27T08:44:07.176Z,12.00
2018-04-27T08:46:37.070Z,12.00
2018-04-27T08:49:06.931Z,12.00
2018-04-27T08:51:36.874Z,12.00
2018-04-27T08:54:07.575Z,12.30
2018-04-27T08:56:37.487Z,12.30
2018-04-27T08:59:08.226Z,12.60
2018-04-27T09:01:39.031Z,12.70
2018-04-27T09:04:08.939Z,12.60
2018-04-27T09:06:38.874Z,13.00
2018-04-27T09:09:08.765Z,13.10
2018-04-27T09:11:38.664Z,13.00
2018-04-27T09:14:08.540Z,13.20
2018-04-27T09:16:38.463Z,13.20
2018-04-27T09:19:09.130Z,13.00
2018-04-27T09:21:39.865Z,13.10
2018-04-27T09:24:09.716Z,13.10
2018-04-27T09:26:39.657Z,13.00
2018-04-27T09:29:10.335Z,13.30
2018-04-27T09:31:40.243Z,13.30
2018-04-27T09:34:10.124Z,13.30
2018-04-27T09:36:40.769Z,13.80
2018-04-27T09:39:11.402Z,13.80
2018-04-27T09:41:42.125Z,14.00
2018-04-27T09:44:12.763Z,14.00
2018-04-27T09:46:43.443Z,14.30
2018-04-27T09:49:14.198Z,14.60
2018-04-27T09:51:44.191Z,14.60
2018-04-27T09:54:14.096Z,14.80
2018-04-27T09:56:43.983Z,14.80
2018-04-27T09:59:14.626Z,14.70
2018-04-27T10:01:44.541Z,14.70
2018-04-27T10:04:14.438Z,14.70
2018-04-27T10:06:44.320Z,14.80
2018-04-27T10:09:15.006Z,14.80
2018-04-27T10:11:44.946Z,14.80
2018-04-27T10:14:14.833Z,15.00
2018-04-27T10:16:44.801Z,15.20
2018-04-27T10:19:15.518Z,15.40
2018-04-27T10:21:46.215Z,15.40
2018-04-27T10:24:16.960Z,15.60
2018-04-27T10:26:46.886Z,15.60
2018-04-27T10:29:16.822Z,15.70
2018-04-27T10:31:47.494Z,15.70
2018-04-27T10:34:18.179Z,15.90
2018-04-27T10:36:48.840Z,16.00
2018-04-27T10:39:19.602Z,16.20
2018-04-27T10:41:50.394Z,16.30
2018-04-27T10:44:21.111Z,16.40
2018-04-27T10:46:51.846Z,16.60
2018-04-27T10:49:21.878Z,16.60
2018-04-27T10:51:52.759Z,17.20
2018-04-27T10:54:22.771Z,17.20
2018-04-27T10:56:53.683Z,17.20
2018-04-27T10:59:24.544Z,17.20
2018-04-27T11:01:55.565Z,17.10
2018-04-27T11:04:26.438Z,17.20
2018-04-27T11:06:57.219Z,17.30
2018-04-27T11:09:28.047Z,17.40
2018-04-27T11:11:58.770Z,17.70
2018-04-27T11:14:29.555Z,17.90
2018-04-27T11:16:59.635Z,18.00
2018-04-27T11:19:29.572Z,17.80
2018-04-27T11:22:00.343Z,17.60
2018-04-27T11:24:31.123Z,17.80
2018-04-27T11:27:01.862Z,18.10
2018-04-27T11:29:31.802Z,18.00
2018-04-27T11:32:01.731Z,18.00
2018-04-27T11:34:31.618Z,18.30
2018-04-27T11:37:02.316Z,18.30
2018-04-27T11:39:33.017Z,18.30
2018-04-27T11:42:03.783Z,18.40
2018-04-27T11:44:33.703Z,18.40
2018-04-27T11:47:04.418Z,18.70
2018-04-27T11:49:35.278Z,18.90
2018-04-27T11:52:06.048Z,19.10
2018-04-27T11:54:36.079Z,19.10
2018-04-27T11:57:06.907Z,19.20
2018-04-27T11:59:36.919Z,19.20
2018-04-27T12:02:09.598Z,19.70
2018-04-27T12:04:39.587Z,19.80
2018-04-27T12:07:10.351Z,19.70
2018-04-27T12:09:40.371Z,19.70
2018-04-27T12:12:10.369Z,19.70
2018-04-27T12:14:40.307Z,19.60
2018-04-27T12:17:11.225Z,20.30
2018-04-27T12:19:41.202Z,20.30
2018-04-27T12:22:11.944Z,20.30
2018-04-27T12:24:42.643Z,20.90
2018-04-27T12:27:12.557Z,20.90
2018-04-27T12:29:42.451Z,21.00
2018-04-27T12:32:13.293Z,21.10
2018-04-27T12:34:43.200Z,21.00
2018-04-27T12:37:13.123Z,21.40
2018-04-27T12:39:43.795Z,21.30
2018-04-27T12:42:14.511Z,21.20
2018-04-27T12:44:44.430Z,21.20
2018-04-27T12:47:14.443Z,21.50
2018-04-27T12:49:44.392Z,21.90
2018-04-27T12:52:15.160Z,22.30
2018-04-27T12:54:45.108Z,22.20
2018-04-27T12:57:15.986Z,22.20
2018-04-27T12:59:45.885Z,22.20
2018-04-27T13:02:16.569Z,22.40
2018-04-27T13:04:46.487Z,22.40
2018-04-27T13:07:16.404Z,22.50
2018-04-27T13:09:46.323Z,22.70
2018-04-27T13:12:16.312Z,23.00
2018-04-27T13:14:46.245Z,22.70
2018-04-27T13:17:16.994Z,23.00
2018-04-27T13:19:47.712Z,23.20
2018-04-27T13:22:17.604Z,23.10
2018-04-27T13:24:48.315Z,23.00
2018-04-27T13:27:19.045Z,23.20
2018-04-27T13:29:48.955Z,23.20
2018-04-27T13:32:19.621Z,23.40
2018-04-27T13:34:50.300Z,23.30
2018-04-27T13:37:20.225Z,23.30
2018-04-27T13:39:50.908Z,23.70
2018-04-27T13:42:21.583Z,24.00
2018-04-27T13:44:52.263Z,24.00
2018-04-27T13:47:22.135Z,23.90
2018-04-27T13:49:52.809Z,24.00
2018-04-27T13:52:23.570Z,24.30
2018-04-27T13:54:53.495Z,24.30
2018-04-27T13:57:24.326Z,24.50
2018-04-27T13:59:55.035Z,24.80
2018-04-27T14:02:24.996Z,24.70
2018-04-27T14:04:55.746Z,25.30
2018-04-27T14:07:26.424Z,25.60
2018-04-27T14:09:57.211Z,25.70
2018-04-27T14:12:28.005Z,25.20
2018-04-27T14:14:58.054Z,25.10
2018-04-27T14:17:28.749Z,25.30
2018-04-27T14:19:59.574Z,25.50
2018-04-27T14:22:30.236Z,25.30
2018-04-27T14:25:00.951Z,25.50
2018-04-27T14:27:30.855Z,25.50
2018-04-27T14:30:01.651Z,25.50
2018-04-27T14:32:32.292Z,25.40
2018-04-27T14:35:02.924Z,25.30
2018-04-27T14:37:33.609Z,25.60
2018-04-27T14:40:04.320Z,25.20
2018-04-27T14:42:34.274Z,25.20
2018-04-27T14:45:04.983Z,25.20
2018-04-27T14:47:34.897Z,25.10
2018-04-27T14:50:04.945Z,24.80
2018-04-27T14:52:35.733Z,25.40
2018-04-27T14:55:05.576Z,25.40
2018-04-27T14:57:36.319Z,25.20
2018-04-27T15:00:07.090Z,25.20
2018-04-27T15:02:37.109Z,25.20
2018-04-27T15:05:07.763Z,25.70
2018-04-27T15:07:38.468Z,25.80
2018-04-27T15:10:08.430Z,25.80
2018-04-27T15:12:38.315Z,25.20
2018-04-27T15:15:08.325Z,25.10
2018-04-27T15:17:39.119Z,25.20
2018-04-27T15:20:09.878Z,24.90
2018-04-27T15:22:39.799Z,24.80
2018-04-27T15:25:10.540Z,25.10
2018-04-27T15:27:40.502Z,25.10
2018-04-27T15:30:11.319Z,25.60
2018-04-27T15:32:42.018Z,25.10
2018-04-27T15:35:12.679Z,25.00
2018-04-27T15:37:42.652Z,25.00
2018-04-27T15:40:13.338Z,25.00
2018-04-27T15:42:44.039Z,25.00
2018-04-27T15:45:13.977Z,25.00
2018-04-27T15:47:44.765Z,25.10
2018-04-27T15:50:14.758Z,25.10
2018-04-27T15:52:44.685Z,24.80
2018-04-27T15:55:14.572Z,25.00
2018-04-27T15:57:44.487Z,25.40
2018-04-27T16:00:15.255Z,25.20
2018-04-27T16:02:45.175Z,25.20
2018-04-27T16:05:15.100Z,25.40
2018-04-27T16:07:45.150Z,25.10
2018-04-27T16:10:15.929Z,25.10
2018-04-27T16:12:46.721Z,25.10
2018-04-27T16:15:16.776Z,25.10
2018-04-27T16:17:47.615Z,25.50
2018-04-27T16:20:17.718Z,25.60
2018-04-27T16:22:47.834Z,25.30
2018-04-27T16:25:17.800Z,25.30
2018-04-27T16:27:47.772Z,24.80
2018-04-27T16:30:18.506Z,25.40
2018-04-27T16:32:49.333Z,25.60
2018-04-27T16:35:19.392Z,25.60
2018-04-27T16:37:49.406Z,25.90
2018-04-27T16:40:20.375Z,25.80
2018-04-27T16:42:50.378Z,25.80
2018-04-27T16:45:20.312Z,25.60
2018-04-27T16:47:50.249Z,25.80
2018-04-27T16:50:20.948Z,25.80
2018-04-27T16:52:50.879Z,25.80
2018-04-27T16:55:21.638Z,25.70
2018-04-27T16:57:52.386Z,25.60
2018-04-27T17:00:23.192Z,25.60
2018-04-27T17:02:53.184Z,25.60
2018-04-27T17:05:23.210Z,25.20
2018-04-27T17:07:55.409Z,25.40
2018-04-27T17:10:26.200Z,25.40
2018-04-27T17:12:56.517Z,25.30
2018-04-27T17:15:26.514Z,24.80
2018-04-27T17:17:57.279Z,23.20
2018-04-27T17:20:27.274Z,23.20
2018-04-27T17:22:57.370Z,22.30
2018-04-27T17:25:28.114Z,21.40
2018-04-27T17:27:58.872Z,20.90
2018-04-27T17:30:28.886Z,20.90
2018-04-27T17:32:58.931Z,20.80
2018-04-27T17:35:28.958Z,20.40
2018-04-27T17:37:59.714Z,19.90
2018-04-27T17:40:30.440Z,19.90
2018-04-27T17:43:01.142Z,19.50
2018-04-27T17:45:32.064Z,19.80
2018-04-27T17:48:02.065Z,19.80
2018-04-27T17:50:32.690Z,20.10
2018-04-27T17:53:03.442Z,19.60
2018-04-27T17:55:33.419Z,19.60
2018-04-27T17:58:04.119Z,19.00
2018-04-27T18:00:35.022Z,18.80
2018-04-27T18:03:04.994Z,18.80
2018-04-27T18:05:35.700Z,19.00
2018-04-27T18:08:05.586Z,19.00
2018-04-27T18:10:36.308Z,18.60
2018-04-27T18:13:06.243Z,18.60
2018-04-27T18:15:36.193Z,18.50
2018-04-27T18:18:06.195Z,18.50
2018-04-27T18:20:36.157Z,18.50
2018-04-27T18:23:06.914Z,18.20
2018-04-27T18:25:37.644Z,18.00
2018-04-27T18:28:07.571Z,18.00
2018-04-27T18:30:37.600Z,18.10
2018-04-27T18:33:07.527Z,17.90
2018-04-27T18:35:37.532Z,17.80
2018-04-27T18:38:07.540Z,17.80
2018-04-27T18:40:38.410Z,17.70
2018-04-27T18:43:09.247Z,17.60
2018-04-27T18:45:39.272Z,17.60
2018-04-27T18:48:19.148Z,17.70
2018-04-27T18:50:50.822Z,17.60
2018-04-27T18:53:21.703Z,17.90
2018-04-27T18:55:51.735Z,17.90
2018-04-27T18:58:21.768Z,18.00
2018-04-27T19:00:53.425Z,17.70
2018-04-27T19:03:23.529Z,17.70
2018-04-27T19:05:54.317Z,17.10
2018-04-27T19:08:25.183Z,17.10
2018-04-27T19:10:56.045Z,17.20
2018-04-27T19:13:26.019Z,17.10
2018-04-27T19:15:56.840Z,17.10
2018-04-27T19:18:27.730Z,16.90
2018-04-27T19:20:58.715Z,16.70
2018-04-27T19:23:30.378Z,16.60
2018-04-27T19:26:01.224Z,16.70
2018-04-27T19:28:31.194Z,16.70
2018-04-27T19:31:01.939Z,16.40
2018-04-27T19:33:32.696Z,16.40
2018-04-27T19:36:03.798Z,16.20
2018-04-27T19:38:34.750Z,16.30
2018-04-27T19:41:04.734Z,16.30
2018-04-27T19:43:35.517Z,16.10
2018-04-27T19:46:06.337Z,16.30
2018-04-27T19:48:36.367Z,16.20
2018-04-27T19:51:07.163Z,16.10
2018-04-27T19:53:37.343Z,16.10
2018-04-27T19:56:08.121Z,16.20
2018-04-27T19:58:38.129Z,16.20
2018-04-27T20:01:09.085Z,16.20
2018-04-27T20:03:39.131Z,16.20
2018-04-27T20:06:09.172Z,16.30
2018-04-27T20:08:40.133Z,16.00
2018-04-27T20:11:10.192Z,16.00
2018-04-27T20:13:41.106Z,16.00
2018-04-27T20:16:11.203Z,16.00
2018-04-27T20:18:41.952Z,15.70
2018-04-27T20:21:12.972Z,15.70
2018-04-27T20:23:43.771Z,15.80
2018-04-27T20:26:13.770Z,15.70
2018-04-27T20:28:43.804Z,15.70
2018-04-27T20:31:13.803Z,15.60
2018-04-27T20:33:44.689Z,15.80
2018-04-27T20:36:15.706Z,15.80
2018-04-27T20:38:45.603Z,15.80
2018-04-27T20:41:19.144Z,15.40
2018-04-27T20:43:49.078Z,15.20
2018-04-27T20:46:20.689Z,15.40
2018-04-27T20:48:52.351Z,15.40
2018-04-27T20:51:23.083Z,15.00
2018-04-27T20:54:00.605Z,14.80
2018-04-27T20:56:44.107Z,14.90
2018-04-27T20:59:15.928Z,14.90
2018-04-27T21:01:45.907Z,15.30
2018-04-27T21:04:16.806Z,15.00
2018-04-27T21:06:47.598Z,14.90
2018-04-27T21:09:18.424Z,14.80
2018-04-27T21:11:49.144Z,15.10
2018-04-27T21:14:19.923Z,15.20
2018-04-27T21:16:49.936Z,15.20
2018-04-27T21:19:20.753Z,14.90
2018-04-27T21:21:51.483Z,14.70
2018-04-27T21:24:22.232Z,14.60
2018-04-27T21:26:52.944Z,14.40
2018-04-27T21:29:23.699Z,14.30
2018-04-27T21:31:54.450Z,14.60
2018-04-27T21:34:24.384Z,14.60
2018-04-27T21:36:55.225Z,14.30
2018-04-27T21:39:34.132Z,14.60
2018-04-27T21:42:16.828Z,14.60
2018-04-27T21:44:57.441Z,14.80
2018-04-27T21:47:43.908Z,14.80
2018-04-27T21:50:13.914Z,14.60
2018-04-27T21:52:53.878Z,14.60
2018-04-27T21:55:24.560Z,14.50
2018-04-27T21:58:00.146Z,14.40
2018-04-27T22:00:30.910Z,14.60
2018-04-27T22:03:06.531Z,14.30
2018-04-27T22:08:47.878Z,14.10
2018-04-27T22:11:41.219Z,14.10
2018-04-27T22:14:23.711Z,14.30
2018-04-27T22:17:20.204Z,14.50
2018-04-27T22:19:50.965Z,14.50
2018-04-27T22:22:20.942Z,14.50
2018-04-27T22:27:48.311Z,14.20
2018-04-27T22:30:27.606Z,13.90
2018-04-27T22:32:57.672Z,13.90
2018-04-27T22:35:40.973Z,13.50
2018-04-27T22:38:15.419Z,13.50
2018-04-27T22:40:47.583Z,13.60
2018-04-27T22:43:19.119Z,13.80
2018-04-27T22:49:06.261Z,13.90
2018-04-27T22:51:42.386Z,14.00
2018-04-27T22:57:38.136Z,13.70
2018-04-27T23:00:15.351Z,13.70
2018-04-27T23:02:47.960Z,13.70
2018-04-27T23:05:25.442Z,13.60
2018-04-27T23:07:59.901Z,13.20
2018-04-27T23:10:46.526Z,13.20
2018-04-27T23:13:27.975Z,13.00
2018-04-27T23:16:02.298Z,13.00
2018-04-27T23:18:39.202Z,13.00
2018-04-27T23:21:09.201Z,13.10
2018-04-27T23:23:40.007Z,13.30
2018-04-27T23:26:10.003Z,13.30
2018-04-27T23:28:39.962Z,13.40
2018-04-27T23:31:09.906Z,13.10
2018-04-27T23:33:39.880Z,13.00
2018-04-27T23:36:10.726Z,13.00
2018-04-27T23:38:41.500Z,13.20
2018-04-27T23:41:12.337Z,13.10
2018-04-27T23:43:43.970Z,13.10
2018-04-27T23:46:13.931Z,12.80
2018-04-27T23:48:44.925Z,12.80
2018-04-27T23:51:14.878Z,12.80
2018-04-27T23:53:45.660Z,12.30
2018-04-27T23:56:15.691Z,12.40
2018-04-27T23:58:46.575Z,13.00
